createdAt,value
2023-01-09T00:00:36.536Z,23.95
2023-01-09T00:03:06.545Z,21.65
2023-01-09T00:05:36.734Z,21.80
2023-01-09T00:08:06.926Z,21.13
2023-01-09T00:10:39.477Z,21.77
2023-01-09T00:13:09.384Z,19.20
2023-01-09T00:15:39.254Z,22.58
2023-01-09T00:18:09.235Z,20.48
2023-01-09T00:20:39.510Z,22.02
2023-01-09T00:23:09.595Z,22.58
2023-01-09T00:25:42.619Z,23.30
2023-01-09T00:28:12.568Z,22.45
2023-01-09T00:30:42.722Z,19.90
2023-01-09T00:33:12.614Z,21.65
2023-01-09T00:35:42.610Z,23.80
2023-01-09T00:38:12.458Z,21.77
2023-01-09T00:40:44.966Z,21.48
2023-01-09T00:43:14.950Z,22.35
2023-01-09T00:45:45.193Z,21.55
2023-01-09T00:48:26.629Z,22.77
2023-01-09T00:50:58.609Z,21.17
2023-01-09T00:53:32.781Z,22.27
2023-01-09T00:56:10.823Z,22.05
2023-01-09T00:58:40.911Z,23.73
2023-01-09T01:01:12.223Z,29.73
2023-01-09T01:03:42.263Z,36.80
2023-01-09T01:06:24.822Z,29.52
2023-01-09T01:08:55.922Z,26.48
2023-01-09T01:11:28.485Z,24.23
2023-01-09T01:13:58.896Z,25.05
2023-01-09T01:16:28.931Z,23.95
2023-01-09T01:18:58.801Z,22.42
2023-01-09T01:21:31.011Z,22.40
2023-01-09T01:24:00.882Z,25.48
2023-01-09T01:26:34.249Z,25.42
2023-01-09T01:29:04.101Z,23.20
2023-01-09T01:31:33.945Z,24.42
2023-01-09T01:34:03.812Z,22.67
2023-01-09T01:36:33.837Z,26.55
2023-01-09T01:39:03.757Z,26.13
2023-01-09T01:41:36.177Z,24.38
2023-01-09T01:44:08.886Z,24.23
2023-01-09T01:46:38.729Z,22.35
2023-01-09T01:49:13.710Z,25.35
2023-01-09T01:51:48.014Z,23.77
2023-01-09T01:54:23.398Z,25.70
2023-01-09T01:57:01.247Z,24.10
2023-01-09T01:59:37.701Z,25.35
2023-01-09T02:02:08.594Z,23.55
2023-01-09T02:04:40.601Z,26.70
2023-01-09T02:07:12.987Z,22.60
2023-01-09T02:09:45.109Z,22.88
2023-01-09T02:12:26.314Z,24.38
2023-01-09T02:15:01.085Z,26.02
2023-01-09T02:20:43.492Z,24.35
2023-01-09T02:23:48.904Z,28.67
2023-01-09T02:27:08.673Z,25.77
2023-01-09T02:30:12.416Z,25.45
2023-01-09T02:33:01.447Z,26.92
2023-01-09T02:35:52.528Z,26.55
2023-01-09T02:38:32.004Z,27.65
2023-01-09T02:41:07.974Z,25.98
2023-01-09T02:43:37.866Z,24.85
2023-01-09T02:46:08.106Z,26.75
2023-01-09T02:48:40.649Z,25.77
2023-01-09T02:51:18.624Z,27.25
2023-01-09T02:54:22.414Z,26.52
2023-01-09T02:57:17.567Z,26.17
2023-01-09T03:00:03.953Z,26.95
2023-01-09T03:02:50.048Z,28.23
2023-01-09T03:05:31.069Z,27.90
2023-01-09T03:08:04.988Z,27.20
2023-01-09T03:10:43.699Z,29.10
2023-01-09T03:13:18.123Z,28.58
2023-01-09T03:15:51.951Z,29.90
2023-01-09T03:18:25.512Z,28.57
2023-01-09T03:20:58.735Z,25.55
2023-01-09T03:23:29.221Z,25.85
2023-01-09T03:25:59.225Z,27.90
2023-01-09T03:28:32.534Z,24.98
2023-01-09T03:31:02.399Z,26.85
2023-01-09T03:33:32.251Z,26.77
2023-01-09T03:36:04.916Z,30.00
2023-01-09T03:38:34.854Z,25.58
2023-01-09T03:41:05.607Z,26.80
2023-01-09T03:43:35.674Z,30.60
2023-01-09T03:46:05.905Z,28.45
2023-01-09T03:48:35.948Z,26.50
2023-01-09T03:51:08.963Z,27.05
2023-01-09T03:53:38.952Z,28.33
2023-01-09T03:56:09.927Z,29.08
2023-01-09T03:58:39.786Z,29.85
2023-01-09T04:01:12.793Z,27.27
2023-01-09T04:03:43.433Z,30.55
2023-01-09T04:06:15.879Z,30.02
2023-01-09T04:08:46.458Z,28.42
2023-01-09T04:11:18.035Z,28.83
2023-01-09T04:13:47.890Z,28.80
2023-01-09T04:16:17.799Z,33.13
2023-01-09T04:18:47.688Z,32.75
2023-01-09T04:21:20.128Z,27.88
2023-01-09T04:23:50.055Z,31.95
2023-01-09T04:26:19.957Z,30.50
2023-01-09T04:28:50.456Z,28.20
2023-01-09T04:31:20.359Z,27.85
2023-01-09T04:33:50.225Z,27.35
2023-01-09T04:36:22.674Z,30.55
2023-01-09T04:38:52.526Z,26.40
2023-01-09T04:41:34.705Z,26.02
2023-01-09T04:44:04.566Z,27.73
2023-01-09T04:46:34.453Z,29.13
2023-01-09T04:49:04.323Z,24.55
2023-01-09T04:51:36.758Z,24.35
2023-01-09T04:54:07.333Z,25.55
2023-01-09T04:56:37.892Z,27.23
2023-01-09T04:59:09.023Z,25.20
2023-01-09T05:01:39.429Z,27.27
2023-01-09T05:04:09.931Z,25.55
2023-01-09T05:06:42.382Z,24.75
2023-01-09T05:09:12.266Z,25.30
2023-01-09T05:11:42.117Z,23.20
2023-01-09T05:14:12.938Z,25.90
2023-01-09T05:16:42.842Z,24.88
2023-01-09T05:19:13.057Z,25.40
2023-01-09T05:21:45.498Z,25.38
2023-01-09T05:24:15.352Z,28.45
2023-01-09T05:26:45.212Z,24.50
2023-01-09T05:29:15.121Z,24.90
2023-01-09T05:31:45.041Z,26.73
2023-01-09T05:34:14.916Z,26.48
2023-01-09T05:36:47.408Z,23.58
2023-01-09T05:39:17.330Z,27.15
2023-01-09T05:41:47.195Z,24.45
2023-01-09T05:44:17.060Z,24.63
2023-01-09T05:46:47.076Z,27.45
2023-01-09T05:49:17.100Z,26.17
2023-01-09T05:51:49.517Z,27.80
2023-01-09T05:54:19.382Z,28.60
2023-01-09T05:56:49.277Z,22.88
2023-01-09T05:59:19.258Z,28.08
2023-01-09T06:01:49.183Z,26.98
2023-01-09T06:04:19.119Z,26.63
2023-01-09T06:06:51.547Z,27.38
2023-01-09T06:09:21.413Z,26.73
2023-01-09T06:11:51.324Z,27.30
2023-01-09T06:14:21.365Z,26.90
2023-01-09T06:16:51.245Z,30.45
2023-01-09T06:19:21.308Z,27.10
2023-01-09T06:21:53.785Z,26.58
2023-01-09T06:24:23.741Z,25.85
2023-01-09T06:26:53.592Z,28.17
2023-01-09T06:29:23.572Z,28.65
2023-01-09T06:31:53.441Z,27.45
2023-01-09T06:34:23.350Z,29.48
2023-01-09T06:36:55.881Z,27.02
2023-01-09T06:39:25.737Z,26.48
2023-01-09T06:41:55.560Z,25.45
2023-01-09T06:44:25.438Z,27.73
2023-01-09T06:46:55.299Z,25.85
2023-01-09T06:49:25.512Z,25.20
2023-01-09T06:51:57.990Z,27.02
2023-01-09T06:54:28.757Z,28.45
2023-01-09T06:56:58.725Z,24.65
2023-01-09T06:59:29.033Z,26.88
2023-01-09T07:01:59.046Z,27.63
2023-01-09T07:04:29.059Z,27.52
2023-01-09T07:07:01.577Z,30.83
2023-01-09T07:09:31.434Z,28.88
2023-01-09T07:12:01.288Z,27.60
2023-01-09T07:14:31.191Z,25.13
2023-01-09T07:17:01.115Z,24.27
2023-01-09T07:19:31.004Z,27.33
2023-01-09T07:22:03.471Z,25.90
2023-01-09T07:24:33.387Z,28.48
2023-01-09T07:27:03.254Z,25.70
2023-01-09T07:29:33.612Z,30.60
2023-01-09T07:32:03.463Z,25.50
2023-01-09T07:34:33.325Z,26.40
2023-01-09T07:37:05.769Z,25.85
2023-01-09T07:39:35.625Z,26.33
2023-01-09T07:42:05.497Z,29.95
2023-01-09T07:44:35.631Z,33.30
2023-01-09T07:47:05.507Z,31.60
2023-01-09T07:49:35.420Z,26.33
2023-01-09T07:52:08.022Z,27.85
2023-01-09T07:54:37.939Z,31.30
2023-01-09T07:57:08.091Z,25.67
2023-01-09T07:59:37.957Z,28.42
2023-01-09T08:02:09.458Z,30.02
2023-01-09T08:04:39.480Z,27.23
2023-01-09T08:07:11.949Z,27.58
2023-01-09T08:09:41.861Z,28.58
2023-01-09T08:12:11.729Z,26.45
2023-01-09T08:14:41.612Z,26.00
2023-01-09T08:17:11.835Z,28.33
2023-01-09T08:19:43.886Z,25.25
2023-01-09T08:22:16.350Z,27.75
2023-01-09T08:24:46.214Z,26.00
2023-01-09T08:27:16.090Z,27.63
2023-01-09T08:29:45.971Z,23.80
2023-01-09T08:32:15.851Z,27.20
2023-01-09T08:34:45.922Z,29.50
2023-01-09T08:37:18.404Z,29.38
2023-01-09T08:39:48.797Z,27.95
2023-01-09T08:42:31.222Z,27.60
2023-01-09T08:45:13.606Z,27.73
2023-01-09T08:47:43.501Z,22.80
2023-01-09T08:50:13.866Z,23.02
2023-01-09T08:52:46.376Z,27.83
2023-01-09T08:55:16.349Z,27.00
2023-01-09T08:57:51.765Z,24.40
2023-01-09T09:00:26.201Z,25.20
2023-01-09T09:02:58.034Z,27.05
2023-01-09T09:05:29.330Z,28.27
2023-01-09T09:08:03.618Z,24.65
2023-01-09T09:10:33.721Z,24.75
2023-01-09T09:13:04.084Z,27.88
2023-01-09T09:15:34.511Z,27.08
2023-01-09T09:18:07.366Z,27.35
2023-01-09T09:20:39.903Z,25.95
2023-01-09T09:23:12.376Z,28.25
2023-01-09T09:25:42.260Z,25.13
2023-01-09T09:28:13.507Z,29.13
2023-01-09T09:30:43.463Z,28.50
2023-01-09T09:33:13.466Z,22.92
2023-01-09T09:35:43.342Z,28.02
2023-01-09T09:38:15.828Z,27.05
2023-01-09T09:41:06.642Z,28.23
2023-01-09T09:44:15.437Z,27.02
2023-01-09T09:46:52.067Z,25.95
2023-01-09T09:49:29.809Z,26.30
2023-01-09T09:52:08.997Z,28.95
2023-01-09T09:54:45.097Z,24.98
2023-01-09T09:57:20.935Z,25.67
2023-01-09T09:59:52.166Z,28.67
2023-01-09T10:02:30.564Z,25.25
2023-01-09T10:05:07.832Z,29.00
2023-01-09T10:07:46.262Z,27.20
2023-01-09T10:10:25.049Z,27.17
2023-01-09T10:13:00.664Z,22.95
2023-01-09T10:15:40.772Z,25.70
2023-01-09T10:18:23.801Z,25.02
2023-01-09T10:21:00.100Z,23.48
2023-01-09T10:24:10.219Z,26.15
2023-01-09T10:26:50.232Z,28.60
2023-01-09T10:29:57.191Z,28.08
2023-01-09T10:32:51.184Z,26.55
2023-01-09T10:35:51.754Z,22.88
2023-01-09T10:38:29.037Z,26.77
2023-01-09T10:41:06.210Z,29.45
2023-01-09T10:43:47.514Z,24.92
2023-01-09T10:46:23.361Z,30.35
2023-01-09T10:48:59.182Z,24.20
2023-01-09T10:51:35.466Z,27.10
2023-01-09T10:54:06.607Z,22.95
2023-01-09T10:56:42.712Z,21.20
2023-01-09T10:59:15.227Z,25.60
2023-01-09T11:01:45.843Z,25.15
2023-01-09T11:04:26.920Z,25.33
2023-01-09T11:07:02.148Z,24.63
2023-01-09T11:09:57.989Z,20.58
2023-01-09T11:12:30.809Z,27.10
2023-01-09T11:15:29.241Z,27.17
2023-01-09T11:18:24.480Z,23.00
2023-01-09T11:20:55.419Z,21.83
2023-01-09T11:23:32.969Z,23.50
2023-01-09T11:26:04.795Z,23.23
2023-01-09T11:28:35.132Z,21.83
2023-01-09T11:31:07.988Z,17.95
2023-01-09T11:33:43.047Z,20.23
2023-01-09T11:36:19.176Z,20.25
2023-01-09T11:38:53.225Z,15.80
2023-01-09T11:41:26.417Z,22.80
2023-01-09T11:43:59.305Z,17.73
2023-01-09T11:46:44.777Z,19.70
2023-01-09T11:49:26.167Z,21.85
2023-01-09T11:52:19.685Z,17.50
2023-01-09T11:54:56.422Z,17.08
2023-01-09T11:57:28.225Z,16.10
2023-01-09T12:00:05.882Z,17.75
2023-01-09T12:02:54.504Z,17.67
2023-01-09T12:05:39.332Z,13.65
2023-01-09T12:08:31.265Z,14.73
2023-01-09T12:11:26.098Z,15.13
2023-01-09T12:14:35.997Z,12.55
2023-01-09T12:17:43.590Z,13.98
2023-01-09T12:20:30.880Z,11.90
2023-01-09T12:23:18.972Z,13.63
2023-01-09T12:25:59.020Z,11.35
2023-01-09T12:28:58.679Z,12.02
2023-01-09T12:32:12.621Z,12.77
2023-01-09T12:35:10.611Z,11.02
2023-01-09T12:38:13.960Z,12.93
2023-01-09T12:41:10.748Z,11.80
2023-01-09T12:43:49.000Z,16.00
2023-01-09T12:46:21.223Z,11.05
2023-01-09T12:49:23.729Z,10.13
2023-01-09T12:52:04.733Z,12.15
2023-01-09T12:54:42.908Z,11.40
2023-01-09T12:57:24.614Z,11.35
2023-01-09T12:59:58.478Z,19.40
2023-01-09T13:02:34.503Z,9.87
2023-01-09T13:05:11.194Z,17.33
2023-01-09T13:07:49.995Z,14.10
2023-01-09T13:10:27.123Z,10.15
2023-01-09T13:12:59.158Z,7.68
2023-01-09T13:15:33.783Z,9.23
2023-01-09T13:18:10.448Z,16.75
2023-01-09T13:20:46.825Z,8.07
2023-01-09T13:23:31.520Z,14.57
2023-01-09T13:26:05.896Z,10.02
2023-01-09T13:28:43.752Z,9.43
2023-01-09T13:31:43.781Z,8.60
2023-01-09T13:34:22.517Z,8.43
2023-01-09T13:36:55.875Z,8.13
2023-01-09T13:39:32.380Z,8.65
2023-01-09T13:42:17.322Z,9.10
2023-01-09T13:44:50.516Z,7.80
2023-01-09T13:47:24.857Z,11.88
2023-01-09T13:50:04.574Z,12.13
2023-01-09T13:52:39.487Z,8.07
2023-01-09T13:55:36.067Z,7.18
2023-01-09T13:58:27.311Z,8.23
2023-01-09T14:01:08.083Z,6.88
2023-01-09T14:03:40.333Z,11.40
2023-01-09T14:06:22.424Z,5.85
2023-01-09T14:09:12.667Z,7.13
2023-01-09T14:11:46.270Z,9.30
2023-01-09T14:14:33.216Z,11.00
2023-01-09T14:17:04.184Z,7.65
2023-01-09T14:19:40.558Z,9.82
2023-01-09T14:22:26.436Z,5.90
2023-01-09T14:24:56.807Z,8.05
2023-01-09T14:28:11.821Z,11.63
2023-01-09T14:31:06.136Z,7.10
2023-01-09T14:33:36.537Z,7.20
2023-01-09T14:36:19.531Z,7.38
2023-01-09T14:38:51.804Z,8.57
2023-01-09T14:41:48.529Z,6.75
2023-01-09T14:44:30.740Z,8.60
2023-01-09T14:47:09.985Z,6.35
2023-01-09T14:49:45.131Z,8.55
2023-01-09T14:52:25.057Z,7.40
2023-01-09T14:54:58.133Z,7.57
2023-01-09T14:57:31.027Z,11.50
2023-01-09T15:00:07.615Z,6.43
2023-01-09T15:02:40.258Z,7.00
2023-01-09T15:05:14.601Z,10.85
2023-01-09T15:07:52.179Z,5.93
2023-01-09T15:10:25.826Z,7.35
2023-01-09T15:12:58.893Z,6.88
2023-01-09T15:15:31.788Z,6.40
2023-01-09T15:18:06.298Z,6.22
2023-01-09T15:20:37.171Z,9.20
2023-01-09T15:23:07.095Z,7.35
2023-01-09T15:25:40.446Z,8.68
2023-01-09T15:28:32.386Z,9.05
2023-01-09T15:31:15.277Z,10.13
2023-01-09T15:33:46.800Z,10.05
2023-01-09T15:36:21.474Z,10.40
2023-01-09T15:38:53.991Z,8.77
2023-01-09T15:41:42.366Z,9.77
2023-01-09T15:44:20.224Z,10.45
2023-01-09T15:46:53.675Z,10.25
2023-01-09T15:49:23.808Z,10.10
2023-01-09T15:51:54.238Z,12.98
2023-01-09T15:54:31.584Z,10.00
2023-01-09T15:57:35.489Z,11.15
2023-01-09T16:00:42.626Z,24.55
2023-01-09T16:03:23.410Z,26.27
2023-01-09T16:06:05.556Z,18.48
2023-01-09T16:08:39.548Z,11.15
2023-01-09T16:11:12.431Z,11.13
2023-01-09T16:13:47.112Z,15.23
2023-01-09T16:16:28.335Z,9.95
2023-01-09T16:19:01.966Z,8.50
2023-01-09T16:21:37.956Z,10.43
2023-01-09T16:24:27.888Z,9.60
2023-01-09T16:27:22.520Z,11.95
2023-01-09T16:29:57.545Z,17.40
2023-01-09T16:32:31.823Z,11.85
2023-01-09T16:35:07.725Z,8.57
2023-01-09T16:37:38.861Z,14.60
2023-01-09T16:40:32.031Z,12.38
2023-01-09T16:43:01.574Z,13.07
2023-01-09T16:45:34.783Z,12.02
2023-01-09T16:48:05.849Z,11.50
2023-01-09T16:50:38.288Z,12.23
2023-01-09T16:53:18.036Z,13.50
2023-01-09T16:55:48.444Z,11.20
2023-01-09T16:58:21.646Z,14.50
2023-01-09T17:00:51.571Z,16.67
2023-01-09T17:03:22.016Z,16.33
2023-01-09T17:05:58.368Z,14.60
2023-01-09T17:08:31.264Z,14.25
2023-01-09T17:11:01.604Z,11.73
2023-01-09T17:13:31.480Z,10.98
2023-01-09T17:16:02.600Z,9.27
2023-01-09T17:18:32.427Z,10.27
2023-01-09T17:21:04.846Z,11.40
2023-01-09T17:23:34.741Z,11.73
2023-01-09T17:26:17.131Z,11.00
2023-01-09T17:28:51.228Z,12.52
2023-01-09T17:31:21.735Z,13.15
2023-01-09T17:33:51.641Z,26.25
2023-01-09T17:36:32.251Z,21.33
2023-01-09T17:39:02.896Z,24.48
2023-01-09T17:41:34.808Z,23.17
2023-01-09T17:44:04.900Z,27.42
2023-01-09T17:46:37.623Z,23.60
2023-01-09T17:49:09.859Z,24.02
2023-01-09T17:51:42.300Z,15.65
2023-01-09T17:54:12.190Z,14.38
2023-01-09T17:56:46.911Z,15.57
2023-01-09T18:01:47.829Z,17.25
2023-01-09T18:04:17.698Z,18.40
2023-01-09T18:06:50.200Z,13.85
2023-01-09T18:09:20.864Z,16.77
2023-01-09T18:11:50.772Z,17.63
2023-01-09T18:14:20.621Z,13.02
2023-01-09T18:16:50.551Z,11.90
2023-01-09T18:19:20.452Z,13.10
2023-01-09T18:21:52.956Z,12.30
2023-01-09T18:24:22.784Z,11.80
2023-01-09T18:26:52.644Z,13.38
2023-01-09T18:29:22.560Z,17.42
2023-01-09T18:31:52.607Z,15.73
2023-01-09T18:34:22.491Z,18.27
2023-01-09T18:36:54.943Z,34.88
2023-01-09T18:39:24.857Z,23.60
2023-01-09T18:41:54.703Z,12.85
2023-01-09T18:44:24.660Z,21.20
2023-01-09T18:46:54.616Z,17.55
2023-01-09T18:49:24.518Z,18.25
2023-01-09T18:51:57.011Z,17.98
2023-01-09T18:54:26.926Z,111.55
2023-01-09T18:56:56.810Z,68.32
2023-01-09T18:59:26.683Z,24.73
2023-01-09T19:01:56.523Z,15.02
2023-01-09T19:04:26.419Z,15.40
2023-01-09T19:06:59.948Z,18.05
2023-01-09T19:09:29.880Z,14.85
2023-01-09T19:11:59.712Z,15.88
2023-01-09T19:14:29.703Z,12.18
2023-01-09T19:17:01.443Z,11.63
2023-01-09T19:19:31.888Z,10.40
2023-01-09T19:22:04.497Z,9.82
2023-01-09T19:24:34.663Z,13.25
2023-01-09T19:27:04.527Z,13.43
2023-01-09T19:29:36.614Z,13.02
2023-01-09T19:32:08.603Z,16.63
2023-01-09T19:34:38.624Z,17.38
2023-01-09T19:37:11.804Z,13.07
2023-01-09T19:39:42.319Z,10.27
2023-01-09T19:42:12.201Z,9.70
2023-01-09T19:44:42.074Z,7.25
2023-01-09T19:47:14.092Z,7.03
2023-01-09T19:49:43.928Z,5.63
2023-01-09T19:52:16.594Z,9.32
2023-01-09T19:54:46.449Z,13.60
2023-01-09T19:57:16.326Z,11.18
2023-01-09T19:59:46.166Z,11.60
2023-01-09T20:02:18.833Z,10.40
2023-01-09T20:04:48.732Z,12.70
2023-01-09T20:07:21.359Z,10.20
2023-01-09T20:09:51.859Z,11.18
2023-01-09T20:12:21.825Z,15.50
2023-01-09T20:14:51.815Z,14.85
2023-01-09T20:17:21.731Z,15.88
2023-01-09T20:19:51.619Z,22.77
2023-01-09T20:22:25.904Z,17.45
2023-01-09T20:24:55.797Z,18.23
2023-01-09T20:27:25.709Z,12.77
2023-01-09T20:29:55.544Z,19.08
2023-01-09T20:32:25.412Z,18.67
2023-01-09T20:34:55.265Z,13.25
2023-01-09T20:37:27.814Z,11.57
2023-01-09T20:39:57.643Z,9.05
2023-01-09T20:42:27.567Z,25.48
2023-01-09T20:44:57.520Z,25.85
2023-01-09T20:47:27.728Z,18.60
2023-01-09T20:49:57.582Z,26.85
2023-01-09T20:52:30.007Z,33.67
2023-01-09T20:54:59.881Z,48.08
2023-01-09T20:57:30.506Z,32.55
2023-01-09T21:00:00.594Z,21.20
2023-01-09T21:02:30.807Z,12.85
2023-01-09T21:05:00.687Z,10.52
2023-01-09T21:07:33.225Z,12.77
2023-01-09T21:10:03.090Z,12.20
2023-01-09T21:12:37.766Z,25.67
2023-01-09T21:15:15.228Z,41.88
2023-01-09T21:17:45.706Z,38.90
2023-01-09T21:20:18.543Z,27.27
2023-01-09T21:22:51.051Z,25.67
2023-01-09T21:25:21.309Z,20.38
2023-01-09T21:27:51.546Z,14.02
2023-01-09T21:30:21.408Z,10.50
2023-01-09T21:32:51.265Z,11.35
2023-01-09T21:35:21.334Z,11.15
2023-01-09T21:37:53.780Z,9.68
2023-01-09T21:40:23.757Z,8.23
2023-01-09T21:43:06.146Z,9.50
2023-01-09T21:45:48.699Z,13.65
2023-01-09T21:48:18.667Z,11.02
2023-01-09T21:50:48.489Z,9.75
2023-01-09T21:53:21.014Z,10.15
2023-01-09T21:55:50.947Z,10.05
2023-01-09T21:58:20.798Z,7.43
2023-01-09T22:00:52.070Z,6.35
2023-01-09T22:03:22.183Z,6.50
2023-01-09T22:05:52.105Z,6.32
2023-01-09T22:08:24.550Z,7.75
2023-01-09T22:11:00.252Z,8.02
2023-01-09T22:13:30.610Z,5.65
2023-01-09T22:16:06.696Z,6.30
2023-01-09T22:18:37.809Z,6.20
2023-01-09T22:21:08.079Z,6.85
2023-01-09T22:23:40.521Z,5.65
2023-01-09T22:26:11.716Z,6.35
2023-01-09T22:28:41.767Z,6.63
2023-01-09T22:31:12.543Z,5.00
2023-01-09T22:33:42.396Z,5.68
2023-01-09T22:36:14.778Z,5.72
2023-01-09T22:38:47.618Z,5.53
2023-01-09T22:41:17.758Z,5.45
2023-01-09T22:43:47.603Z,7.70
2023-01-09T22:46:17.535Z,6.10
2023-01-09T22:48:47.717Z,4.32
2023-01-09T22:51:21.002Z,5.38
2023-01-09T22:53:54.303Z,4.82
2023-01-09T22:56:25.323Z,5.05
2023-01-09T22:58:58.428Z,7.88
2023-01-09T23:01:28.368Z,5.25
2023-01-09T23:03:58.309Z,5.80
2023-01-09T23:06:28.214Z,8.40
2023-01-09T23:09:00.666Z,5.75
2023-01-09T23:11:45.577Z,4.93
2023-01-09T23:14:15.929Z,5.75
2023-01-09T23:16:45.926Z,7.10
2023-01-09T23:19:17.111Z,6.30
2023-01-09T23:21:48.057Z,7.30
2023-01-09T23:24:22.094Z,5.40
2023-01-09T23:26:52.293Z,4.97
2023-01-09T23:29:22.552Z,4.82
2023-01-09T23:31:53.778Z,6.53
2023-01-09T23:34:27.718Z,5.97
2023-01-09T23:36:59.147Z,6.53
2023-01-09T23:39:31.616Z,12.05
2023-01-09T23:42:13.968Z,6.25
2023-01-09T23:44:43.865Z,12.43
2023-01-09T23:47:13.699Z,6.57
2023-01-09T23:49:43.584Z,9.60
2023-01-09T23:52:13.452Z,7.25
2023-01-09T23:54:45.919Z,6.32
2023-01-09T23:57:15.823Z,5.43
2023-01-09T23:59:45.682Z,8.88
